createdAt,value
2018-06-04T00:00:51.790Z,99387.95
2018-06-04T00:03:22.438Z,99385.08
2018-06-04T00:05:53.704Z,99390.99
2018-06-04T00:08:24.332Z,99394.53
2018-06-04T00:10:56.098Z,99390.42
2018-06-04T00:13:26.811Z,99390.42
2018-06-04T00:15:57.537Z,99389.87
2018-06-04T00:18:28.321Z,99385.61
2018-06-04T00:20:59.001Z,99386.98
2018-06-04T00:23:29.634Z,99383.61
2018-06-04T00:26:00.342Z,99378.13
2018-06-04T00:28:31.050Z,99372.58
2018-06-04T00:31:01.729Z,99377.95
2018-06-04T00:33:31.921Z,99371.68
2018-06-04T00:36:02.815Z,99381.08
2018-06-04T00:38:33.474Z,99374.14
2018-06-04T00:41:04.307Z,99374.98
2018-06-04T00:43:35.045Z,99371.84
2018-06-04T00:46:06.027Z,99371.80
2018-06-04T00:48:36.718Z,99366.24
2018-06-04T00:51:07.448Z,99368.11
2018-06-04T00:53:38.179Z,99360.95
2018-06-04T00:56:22.143Z,99370.50
2018-06-04T00:58:52.817Z,99374.36
2018-06-04T01:01:23.838Z,99374.14
2018-06-04T01:03:54.410Z,99366.48
2018-06-04T01:06:25.374Z,99371.88
2018-06-04T01:08:55.917Z,99365.63
2018-06-04T01:11:26.478Z,99362.59
2018-06-04T01:13:57.206Z,99365.02
2018-06-04T01:16:27.929Z,99363.80
2018-06-04T01:18:58.672Z,99355.89
2018-06-04T01:21:29.304Z,99358.73
2018-06-04T01:23:59.918Z,99358.11
2018-06-04T01:26:30.569Z,99348.77
2018-06-04T01:29:01.250Z,99348.27
2018-06-04T01:31:32.070Z,99344.05
2018-06-04T01:34:02.778Z,99339.73
2018-06-04T01:36:33.505Z,99344.30
2018-06-04T01:39:03.981Z,99335.14
2018-06-04T01:41:34.874Z,99333.25
2018-06-04T01:44:05.745Z,99333.47
2018-06-04T01:46:36.803Z,99339.41
2018-06-04T01:49:07.429Z,99334.03
2018-06-04T01:51:38.190Z,99337.56
2018-06-04T01:54:08.714Z,99344.63
2018-06-04T01:56:39.431Z,99343.67
2018-06-04T01:59:10.037Z,99341.03
2018-06-04T02:01:41.058Z,99339.15
2018-06-04T02:04:11.638Z,99337.40
2018-06-04T02:06:42.318Z,99340.41
2018-06-04T02:09:12.925Z,99331.48
2018-06-04T02:11:43.214Z,99324.57
2018-06-04T02:14:13.841Z,99335.05
2018-06-04T02:16:44.672Z,99334.80
2018-06-04T02:19:15.369Z,99342.20
2018-06-04T02:21:46.455Z,99343.12
2018-06-04T02:24:17.138Z,99336.97
2018-06-04T02:26:47.857Z,99335.01
2018-06-04T02:29:18.553Z,99335.76
2018-06-04T02:31:49.233Z,99342.53
2018-06-04T02:34:19.916Z,99341.78
2018-06-04T02:36:50.577Z,99339.23
2018-06-04T02:39:21.282Z,99335.00
2018-06-04T02:41:52.098Z,99332.56
2018-06-04T02:44:22.756Z,99332.16
2018-06-04T02:46:53.565Z,99332.53
2018-06-04T02:49:24.209Z,99332.62
2018-06-04T02:51:54.775Z,99336.22
2018-06-04T02:54:25.539Z,99334.10
2018-06-04T02:56:56.290Z,99328.83
2018-06-04T02:59:26.954Z,99326.80
2018-06-04T03:01:57.638Z,99324.37
2018-06-04T03:04:27.817Z,99326.92
2018-06-04T03:06:58.233Z,99327.28
2018-06-04T03:09:28.856Z,99325.88
2018-06-04T03:12:00.670Z,99334.50
2018-06-04T03:14:31.399Z,99337.74
2018-06-04T03:17:02.214Z,99337.31
2018-06-04T03:19:32.216Z,99341.89
2018-06-04T03:22:04.482Z,99342.83
2018-06-04T03:24:35.234Z,99350.41
2018-06-04T03:27:06.299Z,99351.19
2018-06-04T03:29:36.981Z,99356.01
2018-06-04T03:32:07.742Z,99350.94
2018-06-04T03:34:38.444Z,99348.67
2018-06-04T03:37:09.270Z,99352.42
2018-06-04T03:39:39.971Z,99353.11
2018-06-04T03:42:10.701Z,99347.80
2018-06-04T03:44:41.431Z,99355.80
2018-06-04T03:47:12.360Z,99349.27
2018-06-04T03:49:43.041Z,99351.88
2018-06-04T03:52:14.090Z,99349.65
2018-06-04T03:54:44.819Z,99353.12
2018-06-04T03:57:16.110Z,99356.29
2018-06-04T03:59:46.722Z,99364.41
2018-06-04T04:02:17.474Z,99361.95
2018-06-04T04:04:48.042Z,99364.33
2018-06-04T04:07:18.669Z,99366.71
2018-06-04T04:09:49.374Z,99369.19
2018-06-04T04:12:20.109Z,99375.07
2018-06-04T04:14:50.682Z,99380.38
2018-06-04T04:17:21.372Z,99382.91
2018-06-04T04:19:52.067Z,99380.45
2018-06-04T04:22:23.218Z,99386.72
2018-06-04T04:24:53.887Z,99385.03
2018-06-04T04:27:24.869Z,99384.41
2018-06-04T04:29:55.538Z,99380.38
2018-06-04T04:32:26.374Z,99379.64
2018-06-04T04:34:57.005Z,99382.70
2018-06-04T04:37:27.770Z,99382.93
2018-06-04T04:39:58.428Z,99383.30
2018-06-04T04:42:29.275Z,99374.77
2018-06-04T04:44:59.906Z,99383.81
2018-06-04T04:47:30.738Z,99377.50
2018-06-04T04:50:01.379Z,99381.02
2018-06-04T04:52:32.050Z,99376.16
2018-06-04T04:55:02.149Z,99378.00
2018-06-04T04:57:32.754Z,99386.61
2018-06-04T05:00:03.540Z,99379.55
2018-06-04T05:02:34.574Z,99384.45
2018-06-04T05:05:05.421Z,99385.03
2018-06-04T05:07:36.154Z,99382.08
2018-06-04T05:10:06.883Z,99376.42
2018-06-04T05:12:37.345Z,99383.19
2018-06-04T05:15:08.053Z,99381.91
2018-06-04T05:17:38.914Z,99383.66
2018-06-04T05:20:09.614Z,99382.99
2018-06-04T05:22:41.686Z,99381.47
2018-06-04T05:25:12.367Z,99375.40
2018-06-04T05:27:43.257Z,99369.88
2018-06-04T05:30:14.044Z,99374.44
2018-06-04T05:32:44.806Z,99373.80
2018-06-04T05:35:15.451Z,99369.05
2018-06-04T05:37:46.190Z,99363.52
2018-06-04T05:40:16.654Z,99365.70
2018-06-04T05:42:47.473Z,99357.42
2018-06-04T05:45:18.129Z,99352.02
2018-06-04T05:47:48.813Z,99351.48
2018-06-04T05:50:19.489Z,99347.34
2018-06-04T05:52:50.271Z,99353.67
2018-06-04T05:55:20.469Z,99348.66
2018-06-04T05:57:51.110Z,99346.77
2018-06-04T06:00:21.823Z,99346.14
2018-06-04T06:02:52.629Z,99341.80
2018-06-04T06:05:23.394Z,99342.72
2018-06-04T06:07:54.262Z,99339.70
2018-06-04T06:10:24.877Z,99339.98
2018-06-04T06:12:55.686Z,99329.82
2018-06-04T06:15:26.434Z,99330.13
2018-06-04T06:17:57.196Z,99329.66
2018-06-04T06:20:27.867Z,99320.67
2018-06-04T06:22:59.070Z,99322.48
2018-06-04T06:25:29.717Z,99323.27
2018-06-04T06:28:00.406Z,99319.14
2018-06-04T06:30:31.080Z,99322.23
2018-06-04T06:33:02.175Z,99315.77
2018-06-04T06:35:32.742Z,99310.90
2018-06-04T06:38:04.682Z,99315.31
2018-06-04T06:40:35.397Z,99320.44
2018-06-04T06:43:06.190Z,99316.72
2018-06-04T06:45:36.871Z,99312.67
2018-06-04T06:48:07.806Z,99306.61
2018-06-04T06:50:38.482Z,99304.06
2018-06-04T06:53:08.745Z,99297.23
2018-06-04T06:55:39.505Z,99293.96
2018-06-04T06:58:10.577Z,99293.81
2018-06-04T07:00:41.268Z,99292.87
2018-06-04T07:03:11.866Z,99284.98
2018-06-04T07:05:42.170Z,99280.89
2018-06-04T07:08:13.138Z,99289.33
2018-06-04T07:10:43.893Z,99292.41
2018-06-04T07:13:15.510Z,99284.61
2018-06-04T07:15:45.853Z,99287.96
2018-06-04T07:18:16.591Z,99282.41
2018-06-04T07:20:46.958Z,99288.00
2018-06-04T07:23:17.234Z,99280.72
2018-06-04T07:25:47.576Z,99282.01
2018-06-04T07:28:17.841Z,99283.41
2018-06-04T07:30:48.235Z,99278.89
2018-06-04T07:33:18.514Z,99279.34
2018-06-04T07:35:48.954Z,99279.24
2018-06-04T07:38:19.225Z,99279.95
2018-06-04T07:40:49.578Z,99275.26
2018-06-04T07:43:19.847Z,99279.52
2018-06-04T07:45:50.338Z,99274.94
2018-06-04T07:48:20.605Z,99268.99
2018-06-04T07:50:51.029Z,99265.76
2018-06-04T07:53:21.302Z,99268.42
2018-06-04T07:55:51.750Z,99267.74
2018-06-04T07:58:22.513Z,99262.41
2018-06-04T08:00:52.879Z,99260.77
2018-06-04T08:03:23.130Z,99260.80
2018-06-04T08:05:53.896Z,99252.77
2018-06-04T08:08:24.154Z,99242.61
2018-06-04T08:10:55.107Z,99251.10
2018-06-04T08:13:25.490Z,99239.03
2018-06-04T08:15:56.276Z,99244.34
2018-06-04T08:18:26.941Z,99239.00
2018-06-04T08:20:57.277Z,99231.79
2018-06-04T08:23:27.839Z,99231.00
2018-06-04T08:25:58.362Z,99229.05
2018-06-04T08:28:28.696Z,99225.94
2018-06-04T08:30:59.026Z,99228.08
2018-06-04T08:33:29.305Z,99217.44
2018-06-04T08:36:00.269Z,99217.36
2018-06-04T08:38:30.991Z,99213.67
2018-06-04T08:41:01.944Z,99214.59
2018-06-04T08:43:32.378Z,99206.69
2018-06-04T08:46:03.055Z,99204.67
2018-06-04T08:48:33.597Z,99208.20
2018-06-04T08:51:04.534Z,99201.43
2018-06-04T08:53:35.168Z,99202.62
2018-06-04T08:56:05.510Z,99189.44
2018-06-04T08:58:35.871Z,99195.19
2018-06-04T09:01:06.326Z,99196.43
2018-06-04T09:03:36.631Z,99195.95
2018-06-04T09:06:07.162Z,99189.39
2018-06-04T09:08:37.517Z,99184.23
2018-06-04T09:11:08.009Z,99173.40
2018-06-04T09:13:38.729Z,99178.60
2018-06-04T09:16:09.411Z,99184.92
2018-06-04T09:18:40.100Z,99173.52
2018-06-04T09:21:10.834Z,99169.86
2018-06-04T09:23:41.573Z,99169.84
2018-06-04T09:26:12.302Z,99169.31
2018-06-04T09:28:43.342Z,99165.88
2018-06-04T09:31:14.010Z,99163.67
2018-06-04T09:33:45.051Z,99163.76
2018-06-04T09:36:15.790Z,99156.22
2018-06-04T09:38:46.221Z,99159.61
2018-06-04T09:41:16.959Z,99147.00
2018-06-04T09:43:47.517Z,99150.53
2018-06-04T09:46:18.067Z,99143.34
2018-06-04T09:48:49.111Z,99148.17
2018-06-04T09:51:19.780Z,99154.32
2018-06-04T09:53:50.481Z,99142.42
2018-06-04T09:56:20.803Z,99132.11
2018-06-04T09:58:51.683Z,99137.58
2018-06-04T10:01:22.417Z,99135.62
2018-06-04T10:03:52.974Z,99126.13
2018-06-04T10:06:23.289Z,99124.23
2018-06-04T10:08:53.610Z,99124.67
2018-06-04T10:11:23.950Z,99119.36
2018-06-04T10:13:54.539Z,99117.64
2018-06-04T10:16:25.375Z,99112.72
2018-06-04T10:18:56.385Z,99111.02
2018-06-04T10:21:27.171Z,99099.58
2018-06-04T10:23:58.171Z,99101.97
2018-06-04T10:26:29.047Z,99099.48
2018-06-04T10:28:59.615Z,99093.98
2018-06-04T10:31:30.035Z,99085.39
2018-06-04T10:34:00.512Z,99085.87
2018-06-04T10:36:30.823Z,99077.13
2018-06-04T10:39:01.335Z,99083.28
2018-06-04T10:41:31.803Z,99080.84
2018-06-04T10:44:02.887Z,99078.28
2018-06-04T10:46:33.750Z,99076.80
2018-06-04T10:49:04.623Z,99063.14
2018-06-04T10:51:35.475Z,99061.66
2018-06-04T10:54:06.387Z,99055.77
2018-06-04T10:56:37.611Z,99058.77
2018-06-04T10:59:56.001Z,99047.76
2018-06-04T11:02:26.843Z,99045.12
2018-06-04T11:04:57.869Z,99044.62
2018-06-04T11:07:28.343Z,99045.48
2018-06-04T11:09:59.283Z,99043.16
2018-06-04T11:12:30.186Z,99035.47
2018-06-04T11:15:01.235Z,99028.18
2018-06-04T11:17:32.111Z,99030.69
2018-06-04T11:20:02.963Z,99016.48
2018-06-04T11:22:33.475Z,99009.85
2018-06-04T11:25:04.733Z,99014.00
2018-06-04T11:27:35.218Z,99003.92
2018-06-04T11:30:06.532Z,98993.27
2018-06-04T11:32:37.093Z,98995.33
2018-06-04T11:35:08.623Z,98986.20
2018-06-04T11:37:39.121Z,98983.29
2018-06-04T11:40:09.682Z,98977.80
2018-06-04T11:42:40.706Z,98971.02
2018-06-04T11:45:11.728Z,98973.23
2018-06-04T11:47:42.487Z,98972.78
2018-06-04T11:50:13.216Z,98967.08
2018-06-04T11:52:43.694Z,98965.39
2018-06-04T11:55:14.646Z,98961.05
2018-06-04T11:57:45.422Z,98958.70
2018-06-04T12:00:16.114Z,98960.24
2018-06-04T12:02:46.518Z,98958.17
2018-06-04T12:05:17.017Z,98947.30
2018-06-04T12:07:47.433Z,98958.52
2018-06-04T12:10:18.014Z,98950.26
2018-06-04T12:12:48.766Z,98942.23
2018-06-04T12:15:19.425Z,98941.45
2018-06-04T12:17:49.529Z,98938.60
2018-06-04T12:20:20.550Z,98942.40
2018-06-04T12:22:51.259Z,98940.83
2018-06-04T12:25:22.158Z,98930.05
2018-06-04T12:27:52.410Z,98944.36
2018-06-04T12:30:23.366Z,98938.73
2018-06-04T12:32:53.702Z,98943.27
2018-06-04T12:35:24.308Z,98948.28
2018-06-04T12:37:54.992Z,98943.72
2018-06-04T12:40:25.602Z,98946.76
2018-06-04T12:42:55.937Z,98948.08
2018-06-04T12:45:28.408Z,98951.86
2018-06-04T12:47:58.785Z,98952.77
2018-06-04T12:50:29.097Z,98943.17
2018-06-04T12:52:59.425Z,98949.02
2018-06-04T12:55:29.760Z,98944.34
2018-06-04T12:58:00.560Z,98939.93
2018-06-04T13:00:30.928Z,98939.13
2018-06-04T13:03:01.309Z,98938.14
2018-06-04T13:05:31.722Z,98942.32
2018-06-04T13:08:02.097Z,98935.50
2018-06-04T13:10:32.421Z,98929.66
2018-06-04T13:13:02.865Z,98930.30
2018-06-04T13:15:33.339Z,98923.01
2018-06-04T13:18:05.124Z,98920.17
2018-06-04T13:20:36.689Z,98916.03
2018-06-04T13:23:07.433Z,98917.06
2018-06-04T13:25:38.009Z,98906.95
2018-06-04T13:28:08.523Z,98906.36
2018-06-04T13:30:38.936Z,98897.32
2018-06-04T13:33:09.435Z,98887.87
2018-06-04T13:35:39.800Z,98880.47
2018-06-04T13:38:10.230Z,98874.13
2018-06-04T13:40:40.598Z,98870.52
2018-06-04T13:43:11.358Z,98868.17
2018-06-04T13:45:44.310Z,98871.92
2018-06-04T13:48:14.863Z,98870.20
2018-06-04T13:50:45.249Z,98868.22
2018-06-04T13:53:15.700Z,98869.70
2018-06-04T13:55:46.547Z,98874.36
2018-06-04T13:58:16.865Z,98866.75
2018-06-04T14:00:47.625Z,98876.94
2018-06-04T14:03:17.957Z,98885.17
2018-06-04T14:05:48.398Z,98888.93
2018-06-04T14:08:18.746Z,98886.90
2018-06-04T14:10:49.123Z,98882.27
2018-06-04T14:13:19.442Z,98883.95
2018-06-04T14:15:49.888Z,98883.69
2018-06-04T14:18:21.206Z,98886.23
2018-06-04T14:20:51.683Z,98884.48
2018-06-04T14:23:22.147Z,98890.53
2018-06-04T14:25:52.786Z,98892.73
2018-06-04T14:28:23.172Z,98887.78
2018-06-04T14:30:53.796Z,98887.02
2018-06-04T14:33:24.214Z,98886.97
2018-06-04T14:35:54.982Z,98889.63
2018-06-04T14:38:25.315Z,98893.22
2018-06-04T14:40:56.478Z,98890.70
2018-06-04T14:43:26.834Z,98897.79
2018-06-04T14:45:58.442Z,98897.81
2018-06-04T14:48:28.806Z,98892.81
2018-06-04T14:50:59.561Z,98889.61
2018-06-04T14:53:30.024Z,98895.02
2018-06-04T14:56:00.698Z,98896.13
2018-06-04T14:58:31.250Z,98902.27
2018-06-04T15:01:01.675Z,98895.73
2018-06-04T15:03:32.111Z,98896.03
2018-06-04T15:06:02.786Z,98894.03
2018-06-04T15:08:33.146Z,98894.92
2018-06-04T15:11:03.637Z,98891.86
2018-06-04T15:13:34.005Z,98885.75
2018-06-04T15:16:04.685Z,98884.45
2018-06-04T15:18:34.976Z,98880.63
2018-06-04T15:21:05.538Z,98872.94
2018-06-04T15:23:35.834Z,98879.06
2018-06-04T15:26:06.215Z,98872.37
2018-06-04T15:28:36.570Z,98870.06
2018-06-04T15:31:07.446Z,98868.53
2018-06-04T15:33:37.813Z,98872.37
2018-06-04T15:36:08.217Z,98863.66
2018-06-04T15:38:38.525Z,98861.73
2018-06-04T15:41:08.909Z,98859.29
2018-06-04T15:43:39.274Z,98860.38
2018-06-04T15:46:10.067Z,98856.63
2018-06-04T15:48:40.415Z,98851.80
2018-06-04T15:51:11.288Z,98850.30
2018-06-04T15:53:41.614Z,98848.36
2018-06-04T15:56:12.229Z,98842.32
2018-06-04T15:58:42.647Z,98839.05
2018-06-04T16:01:13.033Z,98840.89
2018-06-04T16:03:43.383Z,98838.80
2018-06-04T16:06:13.785Z,98835.20
2018-06-04T16:08:44.109Z,98834.37
2018-06-04T16:11:14.674Z,98832.45
2018-06-04T16:13:44.981Z,98836.58
2018-06-04T16:16:15.381Z,98838.98
2018-06-04T16:18:45.715Z,98839.44
2018-06-04T16:21:16.111Z,98854.52
2018-06-04T16:23:46.470Z,98854.97
2018-06-04T16:26:17.091Z,98861.22
2018-06-04T16:28:47.398Z,98868.62
2018-06-04T16:31:17.841Z,98869.75
2018-06-04T16:33:48.167Z,98872.37
2018-06-04T16:36:18.791Z,98873.14
2018-06-04T16:38:49.144Z,98873.30
2018-06-04T16:41:19.905Z,98874.86
2018-06-04T16:43:50.277Z,98872.00
2018-06-04T16:46:20.713Z,98872.89
2018-06-04T16:48:51.091Z,98869.39
2018-06-04T16:51:22.181Z,98880.25
2018-06-04T16:53:52.501Z,98892.77
2018-06-04T16:56:23.233Z,98883.81
2018-06-04T16:58:53.597Z,98897.90
2018-06-04T17:01:24.292Z,98893.65
2018-06-04T17:03:54.633Z,98902.27
2018-06-04T17:06:25.181Z,98894.66
2018-06-04T17:08:55.505Z,98891.34
2018-06-04T17:11:25.858Z,98892.12
2018-06-04T17:13:56.183Z,98897.14
2018-06-04T17:16:26.647Z,98895.43
2018-06-04T17:18:56.998Z,98895.13
2018-06-04T17:21:27.310Z,98902.61
2018-06-04T17:23:57.633Z,98897.84
2018-06-04T17:26:28.954Z,98905.34
2018-06-04T17:28:59.350Z,98909.09
2018-06-04T17:31:29.705Z,98909.40
2018-06-04T17:34:00.152Z,98904.41
2018-06-04T17:36:30.449Z,98910.44
2018-06-04T17:39:01.007Z,98911.45
2018-06-04T17:41:31.306Z,98913.80
2018-06-04T17:44:01.883Z,98909.67
2018-06-04T17:46:31.760Z,98911.11
2018-06-04T17:49:02.121Z,98909.20
2018-06-04T17:51:32.629Z,98917.84
2018-06-04T17:54:02.905Z,98916.69
2018-06-04T17:56:33.202Z,98918.25
2018-06-04T17:59:03.772Z,98920.34
2018-06-04T18:01:34.108Z,98928.27
2018-06-04T18:04:05.024Z,98940.80
2018-06-04T18:06:35.326Z,98949.22
2018-06-04T18:09:08.630Z,98955.19
2018-06-04T18:11:39.069Z,98955.55
2018-06-04T18:14:09.660Z,98964.55
2018-06-04T18:16:39.945Z,98969.64
2018-06-04T18:19:10.335Z,98974.95
2018-06-04T18:21:40.658Z,98985.95
2018-06-04T18:24:11.089Z,98989.95
2018-06-04T18:26:41.601Z,98995.87
2018-06-04T18:29:11.950Z,99004.03
2018-06-04T18:31:42.245Z,99003.69
2018-06-04T18:34:12.674Z,99009.11
2018-06-04T18:36:42.949Z,99009.38
2018-06-04T18:39:13.322Z,99021.70
2018-06-04T18:41:43.654Z,99013.32
2018-06-04T18:44:13.961Z,99013.85
2018-06-04T18:46:44.402Z,99030.28
2018-06-04T18:49:14.797Z,99031.16
2018-06-04T18:51:45.139Z,99041.88
2018-06-04T18:54:15.857Z,99036.82
2018-06-04T18:56:46.145Z,99036.95
2018-06-04T18:59:16.560Z,99037.62
2018-06-04T19:01:46.955Z,99042.75
2018-06-04T19:04:17.946Z,99053.34
2018-06-04T19:06:48.677Z,99068.14
2018-06-04T19:09:19.709Z,99079.26
2018-06-04T19:11:50.402Z,99091.33
2018-06-04T19:14:21.213Z,99100.87
2018-06-04T19:16:51.920Z,99110.51
2018-06-04T19:19:22.757Z,99118.55
2018-06-04T19:21:53.041Z,99126.34
2018-06-04T19:24:23.469Z,99144.97
2018-06-04T19:26:53.827Z,99156.08
2018-06-04T19:29:24.726Z,99139.86
2018-06-04T19:31:55.055Z,99126.45
2018-06-04T19:34:25.493Z,99109.97
2018-06-04T19:36:55.834Z,99095.55
2018-06-04T19:39:26.210Z,99070.87
2018-06-04T19:41:56.494Z,99050.84
2018-06-04T19:44:27.280Z,99021.03
2018-06-04T19:46:58.158Z,99020.16
2018-06-04T19:49:28.854Z,99033.13
2018-06-04T19:51:59.574Z,99029.26
2018-06-04T19:54:30.347Z,99034.69
2018-06-04T19:57:01.046Z,99038.74
2018-06-04T19:59:31.674Z,99042.31
2018-06-04T20:02:02.367Z,99047.20
2018-06-04T20:04:33.173Z,99049.95
2018-06-04T20:07:03.819Z,99048.92
2018-06-04T20:09:34.609Z,99061.09
2018-06-04T20:12:05.153Z,99061.34
2018-06-04T20:14:35.649Z,99059.87
2018-06-04T20:17:06.245Z,99061.54
2018-06-04T20:19:36.850Z,99062.42
2018-06-04T20:22:07.485Z,99098.22
2018-06-04T20:24:38.379Z,99149.56
2018-06-04T20:27:08.912Z,99144.13
2018-06-04T20:29:39.711Z,99141.73
2018-06-04T20:32:10.339Z,99143.75
2018-06-04T20:34:41.026Z,99147.12
2018-06-04T20:37:11.755Z,99153.57
2018-06-04T20:39:42.480Z,99156.95
2018-06-04T20:42:13.186Z,99152.18
2018-06-04T20:44:43.978Z,99152.64
2018-06-04T20:47:14.741Z,99150.67
2018-06-04T20:49:45.494Z,99154.59
2018-06-04T20:52:16.358Z,99150.70
2018-06-04T20:54:47.169Z,99157.73
2018-06-04T20:57:17.926Z,99158.12
2018-06-04T20:59:48.732Z,99160.50
2018-06-04T21:02:19.006Z,99159.23
2018-06-04T21:04:49.709Z,99160.55
2018-06-04T21:07:20.229Z,99161.31
2018-06-04T21:09:51.218Z,99165.47
2018-06-04T21:12:21.857Z,99166.03
2018-06-04T21:14:52.637Z,99169.93
2018-06-04T21:17:23.338Z,99167.08
2018-06-04T21:19:54.029Z,99173.60
2018-06-04T21:22:24.366Z,99175.70
2018-06-04T21:24:55.063Z,99177.53
2018-06-04T21:27:25.449Z,99173.34
2018-06-04T21:29:56.285Z,99173.86
2018-06-04T21:32:26.913Z,99176.74
2018-06-04T21:34:58.001Z,99176.47
2018-06-04T21:37:28.694Z,99171.28
2018-06-04T21:39:59.017Z,99172.81
2018-06-04T21:42:29.468Z,99166.32
2018-06-04T21:45:00.146Z,99162.38
2018-06-04T21:47:31.161Z,99164.47
2018-06-04T21:50:01.775Z,99164.23
2018-06-04T21:52:32.506Z,99159.02
2018-06-04T21:55:03.209Z,99159.52
2018-06-04T21:57:33.910Z,99161.58
2018-06-04T22:00:04.730Z,99151.14
2018-06-04T22:02:35.521Z,99145.92
2018-06-04T22:05:06.315Z,99148.28
2018-06-04T22:07:36.863Z,99150.88
2018-06-04T22:10:09.057Z,99141.98
2018-06-04T22:12:39.835Z,99140.91
2018-06-04T22:15:10.612Z,99145.38
2018-06-04T22:17:41.311Z,99140.65
2018-06-04T22:20:11.969Z,99131.02
2018-06-04T22:22:42.772Z,99127.89
2018-06-04T22:25:13.602Z,99119.52
2018-06-04T22:27:44.333Z,99120.83
2018-06-04T22:30:15.073Z,99118.20
2018-06-04T22:32:45.780Z,99116.64
2018-06-04T22:35:16.429Z,99111.88
2018-06-04T22:37:47.178Z,99104.58
2018-06-04T22:40:18.213Z,99102.22
2018-06-04T22:42:48.941Z,99096.77
2018-06-04T22:45:19.704Z,99096.00
2018-06-04T22:47:50.369Z,99090.33
2018-06-04T22:50:21.209Z,99088.72
2018-06-04T22:52:51.842Z,99085.61
2018-06-04T22:55:22.559Z,99081.69
2018-06-04T22:57:53.196Z,99078.23
2018-06-04T23:00:36.745Z,99074.67
2018-06-04T23:03:07.308Z,99080.97
2018-06-04T23:05:38.042Z,99080.40
2018-06-04T23:08:08.656Z,99073.08
2018-06-04T23:10:39.142Z,99070.98
2018-06-04T23:13:09.781Z,99070.71
2018-06-04T23:15:40.773Z,99069.47
2018-06-04T23:18:11.364Z,99070.47
2018-06-04T23:20:43.906Z,99075.94
2018-06-04T23:23:14.448Z,99078.22
2018-06-04T23:25:45.229Z,99071.99
2018-06-04T23:28:15.901Z,99073.83
2018-06-04T23:30:46.671Z,99068.61
2018-06-04T23:33:17.385Z,99068.60
2018-06-04T23:35:48.062Z,99063.66
2018-06-04T23:38:18.160Z,99068.59
2018-06-04T23:40:48.861Z,99067.27
2018-06-04T23:43:19.669Z,99068.31
2018-06-04T23:45:50.446Z,99073.84
2018-06-04T23:48:21.134Z,99078.28
2018-06-04T23:50:51.701Z,99078.03
2018-06-04T23:53:22.592Z,99073.80
2018-06-04T23:55:53.261Z,99060.01
2018-06-04T23:58:24.006Z,99056.10
